Time,TemperatureF,DewpointF,PressureIn,WindDirection,WindDirectionDegrees,WindSpeedMPH,WindSpeedGustMPH,Humidity,HourlyPrecipIn,Conditions,Clouds,dailyrainin,SoftwareType,DateUTC
2013-01-19 00:00:00,25.0,-99.9,-100.00,WSW,245,17.0,32.0,-999,-99.99,,,-99.99,,2013-01-19 07:00:00,
2013-01-19 00:53:00,25.0,-99.9,-100.00,WSW,245,17.0,32.0,-999,-99.99,,,-99.99,,2013-01-19 07:53:00,
2013-01-19 01:23:00,25.0,-99.9,-100.00,WSW,252,47.0,54.0,-999,-99.99,,,-99.99,,2013-01-19 08:23:00,
2013-01-19 01:33:00,25.0,-99.9,-100.00,WSW,239,38.0,57.0,-999,-99.99,,,-99.99,,2013-01-19 08:33:00,
2013-01-19 01:43:00,25.0,-99.9,-100.00,WSW,239,38.0,57.0,-999,-99.99,,,-99.99,,2013-01-19 08:43:00,
2013-01-19 01:53:00,25.0,-99.9,-100.00,WSW,248,29.0,51.0,-999,-99.99,,,-99.99,,2013-01-19 08:53:00,
2013-01-19 02:03:00,25.0,-99.9,-100.00,WSW,246,40.0,51.0,-999,-99.99,,,-99.99,,2013-01-19 09:03:00,
2013-01-19 02:12:00,25.0,-99.9,-100.00,WSW,246,40.0,51.0,-999,-99.99,,,-99.99,,2013-01-19 09:12:00,
2013-01-19 02:23:00,25.0,-99.9,-100.00,WSW,237,44.0,51.0,-999,-99.99,,,-99.99,,2013-01-19 09:23:00,
2013-01-19 02:33:00,25.0,-99.9,-100.00,WSW,238,40.0,50.0,-999,-99.99,,,-99.99,,2013-01-19 09:33:00,
2013-01-19 02:43:00,25.0,-99.9,-100.00,WSW,238,40.0,50.0,-999,-99.99,,,-99.99,,2013-01-19 09:43:00,
2013-01-19 02:53:00,23.0,-99.9,-100.00,SW,230,38.0,51.0,-999,-99.99,,,-99.99,,2013-01-19 09:53:00,
2013-01-19 03:03:00,25.0,-99.9,-100.00,SW,232,28.0,50.0,-999,-99.99,,,-99.99,,2013-01-19 10:03:00,
2013-01-19 03:13:00,25.0,-99.9,-100.00,SW,232,28.0,50.0,-999,-99.99,,,-99.99,,2013-01-19 10:13:00,
2013-01-19 03:23:00,23.0,-99.9,-100.00,SW,231,31.0,46.0,-999,-99.99,,,-99.99,,2013-01-19 10:23:00,
2013-01-19 03:33:00,23.0,-99.9,-100.00,WSW,249,31.0,47.0,-999,-99.99,,,-99.99,,2013-01-19 10:33:00,
2013-01-19 03:43:00,23.0,-99.9,-100.00,WSW,249,31.0,47.0,-999,-99.99,,,-99.99,,2013-01-19 10:43:00,
2013-01-19 03:53:00,25.0,-99.9,-100.00,WSW,252,37.0,44.0,-999,-99.99,,,-99.99,,2013-01-19 10:53:00,
2013-01-19 04:00:00,23.0,-99.9,-100.00,SW,233,27.0,37.0,-999,-99.99,,,-99.99,,2013-01-19 11:00:00,
2013-01-19 04:03:00,25.0,-99.9,-100.00,WSW,252,37.0,44.0,-999,-99.99,,,-99.99,,2013-01-19 11:03:00,
2013-01-19 05:30:00,23.0,-99.9,-100.00,SW,236,36.0,44.0,-999,-99.99,,,-99.99,,2013-01-19 12:30:00,
2013-01-19 05:49:00,23.0,-99.9,-100.00,WSW,248,34.0,51.0,-999,-99.99,,,-99.99,,2013-01-19 12:49:00,
2013-01-19 05:53:00,23.0,-99.9,-100.00,SW,233,36.0,50.0,-999,-99.99,,,-99.99,,2013-01-19 12:53:00,
2013-01-19 06:00:00,23.0,-99.9,-100.00,WSW,238,36.0,44.0,-999,-99.99,,,-99.99,,2013-01-19 13:00:00,
2013-01-19 06:03:00,23.0,-99.9,-100.00,WSW,237,29.0,45.0,-999,-99.99,,,-99.99,,2013-01-19 13:03:00,
2013-01-19 06:13:00,23.0,-99.9,-100.00,WSW,237,29.0,45.0,-999,-99.99,,,-99.99,,2013-01-19 13:13:00,
2013-01-19 06:23:00,23.0,-99.9,-100.00,SW,236,36.0,44.0,-999,-99.99,,,-99.99,,2013-01-19 13:23:00,
2013-01-19 06:54:00,23.0,-99.9,-100.00,WSW,238,36.0,44.0,-999,-99.99,,,-99.99,,2013-01-19 13:54:00,
2013-01-19 07:00:00,23.0,-99.9,-100.00,WSW,240,29.0,37.0,-999,-99.99,,,-99.99,,2013-01-19 14:00:00,
2013-01-19 07:54:00,23.0,-99.9,-100.00,WSW,240,29.0,37.0,-999,-99.99,,,-99.99,,2013-01-19 14:54:00,
2013-01-19 08:00:00,21.0,-99.9,-100.00,WSW,244,29.0,29.0,-999,-99.99,,,-99.99,,2013-01-19 15:00:00,
2013-01-19 08:54:00,21.0,-99.9,-100.00,WSW,244,29.0,29.0,-999,-99.99,,,-99.99,,2013-01-19 15:54:00,
2013-01-19 09:00:00,25.0,-99.9,-100.00,SW,227,27.0,32.0,-999,-99.99,,,-99.99,,2013-01-19 16:00:00,
2013-01-19 09:54:00,25.0,-99.9,-100.00,SW,227,27.0,32.0,-999,-99.99,,,-99.99,,2013-01-19 16:54:00,
2013-01-19 10:00:00,28.0,-99.9,-100.00,SW,227,35.0,43.0,-999,-99.99,,,-99.99,,2013-01-19 17:00:00,
2013-01-19 10:57:00,28.0,-99.9,-100.00,SW,227,35.0,43.0,-999,-99.99,,,-99.99,,2013-01-19 17:57:00,
2013-01-19 11:00:00,30.0,-99.9,-100.00,SW,235,36.0,44.0,-999,-99.99,,,-99.99,,2013-01-19 18:00:00,
2013-01-19 12:00:00,32.0,-99.9,-100.00,SW,221,33.0,39.0,-999,-99.99,,,-99.99,,2013-01-19 19:00:00,
2013-01-19 12:41:00,32.0,-99.9,-100.00,SW,221,33.0,39.0,-999,-99.99,,,-99.99,,2013-01-19 19:41:00,
2013-01-19 12:51:00,32.0,-99.9,-100.00,SW,221,33.0,39.0,-999,-99.99,,,-99.99,,2013-01-19 19:51:00,
2013-01-19 12:59:00,32.0,-99.9,-100.00,SW,221,33.0,39.0,-999,-99.99,,,-99.99,,2013-01-19 19:59:00,
2013-01-19 13:00:00,36.0,-99.9,-100.00,SW,229,26.0,34.0,-999,-99.99,,,-99.99,,2013-01-19 20:00:00,
2013-01-19 14:00:00,36.0,-99.9,-100.00,WSW,238,25.0,26.0,-999,-99.99,,,-99.99,,2013-01-19 21:00:00,
2013-01-19 15:00:00,36.0,-99.9,-100.00,SW,229,22.0,26.0,-999,-99.99,,,-99.99,,2013-01-19 22:00:00,
2013-01-19 15:59:00,36.0,-99.9,-100.00,SW,229,22.0,26.0,-999,-99.99,,,-99.99,,2013-01-19 22:59:00,
2013-01-19 16:00:00,36.0,-99.9,-100.00,SSW,208,13.0,16.0,-999,-99.99,,,-99.99,,2013-01-19 23:00:00,
2013-01-19 17:00:00,34.0,-99.9,-100.00,ESE,120,6.0,8.0,-999,-99.99,,,-99.99,,2013-01-20 00:00:00,
2013-01-19 17:59:00,34.0,-99.9,-100.00,ESE,120,6.0,8.0,-999,-99.99,,,-99.99,,2013-01-20 00:59:00,
2013-01-19 18:00:00,28.0,-99.9,-100.00,SSW,206,8.0,15.0,-999,-99.99,,,-99.99,,2013-01-20 01:00:00,
2013-01-19 19:00:00,27.0,-99.9,-100.00,South,182,7.0,11.0,-999,-99.99,,,-99.99,,2013-01-20 02:00:00,
2013-01-19 20:00:00,27.0,-99.9,-100.00,West,279,13.0,22.0,-999,-99.99,,,-99.99,,2013-01-20 03:00:00,
2013-01-19 20:59:00,27.0,-99.9,-100.00,West,279,13.0,22.0,-999,-99.99,,,-99.99,,2013-01-20 03:59:00,
2013-01-19 21:00:00,27.0,-99.9,-100.00,SW,229,23.0,30.0,-999,-99.99,,,-99.99,,2013-01-20 04:00:00,
2013-01-19 22:00:00,25.0,-99.9,-100.00,SSE,155,3.0,15.0,-999,-99.99,,,-99.99,,2013-01-20 05:00:00,
2013-01-19 22:53:00,25.0,-99.9,-100.00,SSE,155,3.0,15.0,-999,-99.99,,,-99.99,,2013-01-20 05:53:00,
2013-01-19 23:00:00,23.0,-99.9,-100.00,South,187,10.0,11.0,-999,-99.99,,,-99.99,,2013-01-20 06:00:00,
2013-01-19 23:53:00,23.0,-99.9,-100.00,South,187,10.0,11.0,-999,-99.99,,,-99.99,,2013-01-20 06:53:00,